Delta, Utah Weather observations

Data are for observation ending at time listed.
 Day   Time    Ave.   Ave.  Ave.  Vector   Max.   Stn.    Total    Solar   Ave.  
  of    of     Air    Rel.  Wind   Wind    Wind   Baro.  Precip.   Rad.    Soil  
Year   Day     Temp.  Hum.  Speed  Dir.    Gust   Pres.                    Temp. 
2015   (MST)    F      %     mph   deg.    mph     mb.     in.     W/m2     F   
------------------------------------------------------------------------------
 181    6:10   71.4    40    2.4   139      3.8   862.1    0.00      66    99999.0
 181    6:20   72.2    39    2.4   143      3.6   862.1    0.00      81    99999.0
 181    6:30   72.9    39    1.5   145      3.1   862.1    0.00     100    99999.0
 181    6:40   73.7    38    2.0   150      3.1   862.1    0.00     121    99999.0
 181    6:50   74.4    38    1.8   164      3.1   862.1    0.00     145    99999.0
 181    7:00   74.8    40    2.2   158      3.9   862.1    0.00     184    99999.0
 181    7:10   75.6    39    2.1   155      3.5   862.2    0.00     220    99999.0
 181    7:20   76.8    38    1.6   167      3.3   862.1    0.00     257    99999.0
 181    7:30   77.9    36    1.7   170      3.4   862.1    0.00     301    99999.0
 181    7:40   78.1    36    2.7   166      5.6   862.1    0.00     267    99999.0
 181    7:50   78.2    35    2.6   168      5.1   862.2    0.00     318    99999.0
 181    8:00   79.4    34    2.2   171      5.0   862.3    0.00     361    99999.0
 181    8:10   80.4    34    2.4   179      4.5   862.3    0.00     388    99999.0
 181    8:20   81.4    34    1.7   201      4.2   862.3    0.00     433    99999.0
 181    8:30   82.4    32    2.0   176      4.2   862.3    0.00     453    99999.0
 181    8:40   82.8    32    1.8   209      3.7   862.3    0.00     472    99999.0
 181    8:50   83.4    33    1.3   233      2.7   862.3    0.00     518    99999.0
 181    9:00   84.1    30    1.9   201      4.5   862.3    0.00     544    99999.0
 181    9:10   85.0    29    1.9   193      4.6   862.3    0.00     575    99999.0
 181    9:20   85.6    28    2.0   254      4.2   862.2    0.00     588    99999.0
 181    9:30   86.1    27    1.8   250      5.0   862.2    0.00     611    99999.0
 181    9:40   86.6    27    2.1   288      5.4   862.1    0.00     632    99999.0
 181    9:50   87.3    26    1.2   254      3.5   861.9    0.00     653    99999.0
 181   10:00   87.7    25    1.5   250      5.0   861.8    0.00     673    99999.0
 181   10:10   88.1    25    1.5   205      3.8   861.8    0.00     687    99999.0
 181   10:20   89.3    23    2.5   295      5.4   861.8    0.00     703    99999.0
 181   10:30   89.9    23    1.5   262      4.6   861.8    0.00     717    99999.0
 181   10:40   90.2    23    1.5   265      3.9   861.7    0.00     730    99999.0
 181   10:50   91.3    21    1.6   282      5.9   861.7    0.00     741    99999.0
 181   11:00   91.9    22    1.9   267      5.0   861.7    0.00     754    99999.0
 181   11:10   91.9    21    1.8   270      7.5   861.7    0.00     757    99999.0
 181   11:20   92.2    20    2.6   291      5.7   861.7    0.00     768    99999.0
 181   11:30   92.6    20    2.3   310      6.4   861.7    0.00     773    99999.0
 181   11:40   93.2    20    2.0   247      4.2   861.7    0.00     782    99999.0
 181   11:50   93.9    19    2.1   306      6.1   861.6    0.00     787    99999.0
 181   12:00   94.2    19    2.2   286      5.1   861.5    0.00     789    99999.0
 181   12:10   95.1    18    1.8   302      5.2   861.3    0.00     792    99999.0
 181   12:20   94.6    18    2.9   280      6.4   861.2    0.00     794    99999.0
 181   12:30   94.1    18    3.4   304      6.4   861.1    0.00     794    99999.0
 181   12:40   95.1    18    2.5   358      6.4   860.9    0.00     794    99999.0
 181   12:50   95.4    18    2.3   319      5.6   860.8    0.00     794    99999.0
 181   13:00   95.1    18    2.6   320      5.6   860.6    0.00     798    99999.0
 181   13:10   96.4    17    1.8   336      5.5   860.4    0.00     794    99999.0
 181   13:20   96.6    16    2.3   330      6.1   860.2    0.00     786    99999.0
 181   13:30   96.3    17    2.3   314      5.2   860.0    0.00     781    99999.0
 181   13:40   96.6    16    2.3   305      5.6   859.9    0.00     774    99999.0
 181   13:50   97.0    16    2.3   319      6.2   859.7    0.00     766    99999.0
 181   14:00   98.0    14    1.9   283      4.7   859.6    0.00     756    99999.0
 181   14:10   97.4    15    2.2   264      6.4   859.4    0.00     746    99999.0
 181   14:20   97.6    15    2.0   251      5.3   859.3    0.00     735    99999.0
 181   14:30   97.7    15    2.6   306      6.3   859.2    0.00     722    99999.0
 181   14:40   98.0    14    2.5   320      6.9   859.0    0.00     596    99999.0
 181   14:50   98.3    14    2.5   297      7.1   858.9    0.00     131    99999.0
 181   15:00   98.9    14    2.4   292      6.8   858.8    0.00     434    99999.0
 181   15:10   98.5    13    1.9   310      4.0   858.6    0.00     604    99999.0
 181   15:20   99.4    14    1.6   288      5.4   858.4    0.00     465    99999.0
 181   15:30   99.3    13    1.5   260      4.9   858.3    0.00     547    99999.0
 181   15:40  100.6    13    0.8   245      3.9   858.1    0.00     473    99999.0
 181   15:50   99.5    14    1.4   255      3.8   858.0    0.00     604    99999.0
 181   16:00   99.7    13    2.1   293      5.8   857.9    0.00     519    99999.0
 181   16:10   99.5    13    1.6   274      3.9   857.8    0.00     258    99999.0
 181   16:20   99.1    12    1.5   307      3.9   857.7    0.00     158    99999.0
 181   16:30   99.5    13    1.3   268      4.0   857.6    0.00     281    99999.0
 181   16:40   99.0    13    1.6   270      4.6   857.6    0.00     359    99999.0
 181   16:50   98.8    13    1.9   295      5.5   857.6    0.00     384    99999.0
 181   17:00   99.5    13    1.0   305      3.6   857.6    0.00     293    99999.0
 181   17:10   99.2    13    1.7   313      3.7   857.5    0.00     185    99999.0
 181   17:20   98.5    14    0.9   296      2.3   857.4    0.00     130    99999.0
 181   17:30   97.3    16    0.2   173      1.0   857.3    0.00     135    99999.0
 181   17:40   96.0    18    0.1   113      1.0   857.2    0.00     133    99999.0
 181   17:50   96.3    16    1.8   185      4.5   857.1    0.00     128    99999.0
 181   18:00   97.0    15    2.2   190      4.5   857.2    0.00     101    99999.0
 181   18:10   96.8    15    1.3   185      3.1   857.2    0.00      83    99999.0
 181   18:20   96.4    16    1.5   187      3.1   857.2    0.00      71    99999.0
 181   18:30   95.8    18    1.4   182      2.9   857.3    0.00      54    99999.0
 181   18:40   95.5    18    1.7   189      2.9   857.4    0.00      31    99999.0
 181   18:50   94.2    18    3.8   286     10.0   858.0    0.00      15    99999.0
 181   19:00   90.6    22    5.8   254     18.2   858.6    0.00      12    99999.0
 181   19:10   83.6    37    8.2   276     18.2   858.9    0.03      10    99999.0
 181   19:20   77.5    48    7.7   288     19.5   858.9    0.03       9    99999.0
 181   19:30   75.7    53    7.7   294     19.7   859.3    0.00       7    99999.0
 181   19:40   77.4    45    6.8   291     14.6   859.4    0.00       3    99999.0
 181   19:50   78.8    41    5.2   298     11.2   860.0    0.00       3    99999.0
 181   20:00   79.9    36    5.2   304     10.0   860.3    0.00       0    99999.0
 181   20:10   80.2    36    4.2   334      9.5   860.3    0.00       0    99999.0
 181   20:20   80.1    36    5.0   316     10.2   860.3    0.00       0    99999.0
 181   20:30   80.6    36    4.6   307      9.0   860.4    0.00       0    99999.0
 181   20:40   80.5    35    4.5   311     11.0   860.6    0.00       0    99999.0
 181   20:50   81.5    32    3.9   337      8.5   861.0    0.00       0    99999.0
 181   21:00   80.8    34    3.7     3      8.4   861.1    0.00       0    99999.0
 181   21:10   80.6    34    3.1    13      8.1   861.1    0.00       0    99999.0
 181   21:20   81.6    31    3.8     6      8.8   861.1    0.00       0    99999.0
 181   21:30   83.5    27    4.8    18     11.8   861.2    0.00       0    99999.0
 181   21:40   82.5    31    4.2    43     11.2   861.5    0.00       0    99999.0
 181   21:50   80.9    34    3.3    33      8.8   861.5    0.00       0    99999.0
 181   22:00   81.7    31    4.9    40     11.0   861.4    0.00       0    99999.0
 181   22:10   82.1    31    5.0    41     11.4   861.3    0.00       0    99999.0
 181   22:20   81.6    32    5.3    44     10.3   861.3    0.00       0    99999.0
 181   22:30   79.2    40    4.4    63      9.4   861.2    0.00       0    99999.0
 181   22:40   78.1    41    5.6    55     12.5   861.2    0.00       0    99999.0
 181   22:50   78.3    40    5.8    54     12.3   861.2    0.00       0    99999.0
 181   23:00   78.2    40    5.9    41     14.2   861.3    0.00       0    99999.0
 181   23:10   77.6    42    5.9    50     13.8   861.4    0.00       0    99999.0
 181   23:20   76.9    43    5.3    49     12.9   861.3    0.00       0    99999.0
 181   23:30   77.2    42    4.5    44      8.6   861.2    0.00       0    99999.0
 181   23:40   77.1    42    5.3   356     10.0   861.3    0.00       0    99999.0
 181   23:50   75.6    48    5.1   346     10.4   861.4    0.00       0    99999.0
 182    0:00   76.0    45    4.8   357      8.3   861.5    0.00       0    99999.0
 182    0:10   75.7    47    4.0   349      8.8   861.5    0.00       0    99999.0
 182    0:20   75.7    46    5.0    23     11.8   861.4    0.00       0    99999.0
 182    0:30   75.9    45    4.0   346      9.7   861.4    0.00       0    99999.0
 182    0:40   74.6    50    4.1   346      9.9   861.4    0.00       0    99999.0
 182    0:50   74.3    51    4.9   345      9.9   861.4    0.00       0    99999.0
 182    1:00   74.2    51    5.3   347     12.7   861.5    0.00       0    99999.0
 182    1:10   73.6    53    3.9   330      7.4   861.6    0.00       0    99999.0
 182    1:20   73.5    52    4.2   355      9.6   861.4    0.00       0    99999.0
 182    1:30   73.8    51    4.0   352      7.5   861.4    0.00       0    99999.0
 182    1:40   73.7    51    3.4   348      7.1   861.3    0.00       0    99999.0
 182    1:50   73.6    52    2.6   339      4.8   861.2    0.00       0    99999.0
 182    2:00   73.1    53    3.9   348      8.4   861.2    0.00       0    99999.0
 182    2:10   74.0    49    4.0   348      8.8   861.3    0.00       0    99999.0
 182    2:20   74.7    47    4.1   354      9.3   861.3    0.00       0    99999.0
 182    2:30   75.5    45    3.6   350      7.5   861.3    0.00       0    99999.0
 182    2:40   74.4    49    3.8   356      8.5   861.3    0.00       0    99999.0
 182    2:50   74.2    48    3.6   358      7.2   861.4    0.00       0    99999.0
 182    3:00   74.2    48    3.3   349      7.2   861.4    0.00       0    99999.0
 182    3:10   74.1    48    2.4   340      4.5   861.4    0.00       0    99999.0
 182    3:20   73.9    48    2.3   343      4.1   861.5    0.00       0    99999.0
 182    3:30   73.2    51    2.7   327      5.3   861.5    0.00       0    99999.0
 182    3:40   72.3    53    2.7   329      5.2   861.5    0.00       0    99999.0
 182    3:50   71.6    54    1.6   333      3.4   861.4    0.00       0    99999.0
 182    4:00   71.6    54    0.8   254      2.0   861.3    0.00       0    99999.0
 182    4:10   71.7    54    0.7   312      2.1   861.4    0.00       0    99999.0
 182    4:20   71.4    55    1.1   303      3.0   861.5    0.00       0    99999.0
 182    4:30   70.9    57    1.9   350      3.3   861.4    0.00       0    99999.0
 182    4:40   71.0    57    1.9    35      4.5   861.4    0.00       0    99999.0
 182    4:50   71.0    58    1.5    85      3.4   861.5    0.00       0    99999.0
 182    5:00   71.6    54    1.7    50      4.2   861.6    0.00       0    99999.0
 182    5:10   72.0    52    1.0   100      2.1   861.6    0.00       1    99999.0
 182    5:20   71.7    54    2.1   123      3.8   861.5    0.00       3    99999.0
 182    5:30   69.4    59    2.0   123      4.1   861.5    0.00       8    99999.0
 182    5:40   68.6    58    3.0   131      4.8   861.5    0.00      12    99999.0
 182    5:50   67.9    60    2.2   132      4.2   861.6    0.00      15    99999.0
 182    6:00   67.3    60    2.5   145      4.0   861.6    0.00      20    99999.0

Return to Delta, Utah graphs page.


Western Regional Climate Center,wrcc@dri.edu